createdAt,value
2022-09-09T00:01:27.814Z,100578.03
2022-09-09T00:04:06.724Z,100575.59
2022-09-09T00:06:44.402Z,100573.19
2022-09-09T00:09:21.432Z,100574.41
2022-09-09T00:11:57.794Z,100570.78
2022-09-09T00:14:51.983Z,100570.84
2022-09-09T00:17:38.505Z,100566.38
2022-09-09T00:20:19.925Z,100573.28
2022-09-09T00:23:02.202Z,100570.44
2022-09-09T00:25:44.692Z,100563.13
2022-09-09T00:28:25.064Z,100562.31
2022-09-09T00:30:57.095Z,100572.91
2022-09-09T00:33:30.228Z,100565.97
2022-09-09T00:36:04.524Z,100566.78
2022-09-09T00:38:42.427Z,100569.63
2022-09-09T00:41:25.461Z,100575.75
2022-09-09T00:44:07.418Z,100570.06
2022-09-09T00:47:07.860Z,100573.34
2022-09-09T00:50:03.989Z,100572.97
2022-09-09T00:52:51.583Z,100571.34
2022-09-09T00:55:35.747Z,100570.16
2022-09-09T00:58:12.203Z,100571.41
2022-09-09T01:00:48.785Z,100575.03
2022-09-09T01:03:36.657Z,100575.47
2022-09-09T01:06:19.495Z,100572.25
2022-09-09T01:09:13.697Z,100576.31
2022-09-09T01:12:01.052Z,100573.06
2022-09-09T01:14:53.585Z,100581.69
2022-09-09T01:17:31.495Z,100573.56
2022-09-09T01:20:14.435Z,100574.78
2022-09-09T01:23:00.386Z,100570.72
2022-09-09T01:26:11.272Z,100579.31
2022-09-09T01:28:47.155Z,100580.53
2022-09-09T01:31:23.574Z,100578.94
2022-09-09T01:33:54.370Z,100577.31
2022-09-09T01:36:39.254Z,100584.63
2022-09-09T01:39:10.213Z,100584.22
2022-09-09T01:41:42.143Z,100579.75
2022-09-09T01:44:15.608Z,100587.50
2022-09-09T01:46:45.769Z,100586.31
2022-09-09T01:49:16.807Z,100592.00
2022-09-09T01:51:52.843Z,100579.78
2022-09-09T01:54:26.429Z,100587.53
2022-09-09T01:57:15.767Z,100589.94
2022-09-09T02:00:15.088Z,100592.84
2022-09-09T02:03:03.508Z,100583.91
2022-09-09T02:05:41.623Z,100584.34
2022-09-09T02:08:19.916Z,100585.13
2022-09-09T02:11:00.144Z,100587.97
2022-09-09T02:13:32.797Z,100588.84
2022-09-09T02:16:12.596Z,100588.03
2022-09-09T02:18:51.718Z,100594.16
2022-09-09T02:21:23.632Z,100591.72
2022-09-09T02:23:57.615Z,100593.75
2022-09-09T02:26:31.651Z,100594.19
2022-09-09T02:29:08.463Z,100590.53
2022-09-09T02:31:42.878Z,100597.44
2022-09-09T02:34:16.396Z,100600.72
2022-09-09T02:36:51.835Z,100598.31
2022-09-09T02:39:23.288Z,100602.81
2022-09-09T02:41:54.207Z,100596.31
2022-09-09T02:44:25.204Z,100602.41
2022-09-09T02:47:30.167Z,100604.47
2022-09-09T02:50:18.935Z,100604.06
2022-09-09T02:53:09.724Z,100595.97
2022-09-09T02:55:46.322Z,100600.81
2022-09-09T02:58:21.183Z,100611.00
2022-09-09T03:00:54.063Z,100603.69
2022-09-09T03:03:26.417Z,100610.19
2022-09-09T03:05:56.450Z,100611.81
2022-09-09T03:08:29.095Z,100608.16
2022-09-09T03:11:02.747Z,100612.63
2022-09-09T03:13:32.967Z,100619.53
2022-09-09T03:16:05.614Z,100612.66
2022-09-09T03:18:37.495Z,100615.94
2022-09-09T03:21:09.048Z,100621.63
2022-09-09T03:23:40.905Z,100630.16
2022-09-09T03:26:23.897Z,100627.72
2022-09-09T03:28:54.926Z,100619.63
2022-09-09T03:31:27.202Z,100626.53
2022-09-09T03:34:00.712Z,100621.28
2022-09-09T03:36:31.695Z,100625.34
2022-09-09T03:39:04.390Z,100639.19
2022-09-09T03:41:35.705Z,100637.56
2022-09-09T03:44:07.055Z,100638.78
2022-09-09T03:46:37.718Z,100638.78
2022-09-09T03:49:11.738Z,100648.16
2022-09-09T03:51:42.448Z,100641.63
2022-09-09T03:54:12.535Z,100648.56
2022-09-09T03:56:43.840Z,100642.88
2022-09-09T03:59:15.711Z,100640.88
2022-09-09T04:01:47.019Z,100651.06
2022-09-09T04:04:19.594Z,100648.22
2022-09-09T04:06:49.961Z,100655.16
2022-09-09T04:09:20.713Z,100652.34
2022-09-09T04:11:50.894Z,100647.91
2022-09-09T04:14:21.473Z,100656.06
2022-09-09T04:16:52.092Z,100660.13
2022-09-09T04:19:24.446Z,100654.03
2022-09-09T04:21:55.172Z,100665.81
2022-09-09T04:24:28.934Z,100658.47
2022-09-09T04:26:59.623Z,100668.19
2022-09-09T04:29:30.219Z,100660.44
2022-09-09T04:32:00.896Z,100664.06
2022-09-09T04:34:34.331Z,100669.34
2022-09-09T04:37:04.218Z,100666.47
2022-09-09T04:39:34.356Z,100674.97
2022-09-09T04:42:04.863Z,100672.91
2022-09-09T04:44:36.933Z,100674.50
2022-09-09T04:47:08.651Z,100672.41
2022-09-09T04:49:42.447Z,100669.53
2022-09-09T04:52:13.053Z,100670.31
2022-09-09T04:54:43.599Z,100670.66
2022-09-09T04:57:18.813Z,100667.78
2022-09-09T04:59:50.195Z,100674.25
2022-09-09T05:02:20.431Z,100670.19
2022-09-09T05:04:53.103Z,100681.09
2022-09-09T05:07:23.318Z,100679.88
2022-09-09T05:09:53.577Z,100674.13
2022-09-09T05:12:25.393Z,100681.41
2022-09-09T05:14:56.375Z,100672.41
2022-09-09T05:17:26.829Z,100688.63
2022-09-09T05:19:59.036Z,100678.78
2022-09-09T05:22:29.888Z,100684.03
2022-09-09T05:25:00.539Z,100676.25
2022-09-09T05:27:32.971Z,100682.69
2022-09-09T05:30:03.586Z,100680.63
2022-09-09T05:32:35.710Z,100683.44
2022-09-09T05:35:09.137Z,100679.31
2022-09-09T05:37:40.587Z,100676.81
2022-09-09T05:40:12.952Z,100683.66
2022-09-09T05:42:44.284Z,100685.59
2022-09-09T05:45:15.543Z,100687.56
2022-09-09T05:47:46.051Z,100687.44
2022-09-09T05:50:19.055Z,100688.59
2022-09-09T05:52:50.359Z,100682.41
2022-09-09T05:55:21.137Z,100683.59
2022-09-09T05:57:53.310Z,100677.78
2022-09-09T06:00:24.389Z,100683.81
2022-09-09T06:02:57.269Z,100689.47
2022-09-09T06:05:30.043Z,100692.25
2022-09-09T06:08:02.024Z,100687.31
2022-09-09T06:10:32.901Z,100688.06
2022-09-09T06:13:03.516Z,100686.34
2022-09-09T06:15:37.143Z,100687.53
2022-09-09T06:18:07.882Z,100688.75
2022-09-09T06:20:40.640Z,100690.75
2022-09-09T06:23:10.770Z,100680.50
2022-09-09T06:25:42.306Z,100685.38
2022-09-09T06:28:12.979Z,100680.84
2022-09-09T06:30:43.723Z,100681.25
2022-09-09T06:33:14.337Z,100681.19
2022-09-09T06:35:55.235Z,100682.28
2022-09-09T06:38:27.151Z,100690.00
2022-09-09T06:40:59.825Z,100690.31
2022-09-09T06:43:30.943Z,100683.69
2022-09-09T06:46:03.461Z,100687.63
2022-09-09T06:48:35.443Z,100685.47
2022-09-09T06:51:11.368Z,100689.44
2022-09-09T06:53:43.678Z,100695.06
2022-09-09T06:56:27.563Z,100688.03
2022-09-09T06:59:00.551Z,100691.69
2022-09-09T07:01:34.103Z,100694.09
2022-09-09T07:04:10.345Z,100692.81
2022-09-09T07:06:45.687Z,100688.19
2022-09-09T07:09:19.134Z,100688.06
2022-09-09T07:11:53.072Z,100693.63
2022-09-09T07:14:24.414Z,100701.25
2022-09-09T07:16:59.318Z,100692.59
2022-09-09T07:19:30.022Z,100690.91
2022-09-09T07:22:04.243Z,100690.38
2022-09-09T07:24:34.434Z,100684.53
2022-09-09T07:27:04.842Z,100683.63
2022-09-09T07:29:35.080Z,100683.53
2022-09-09T07:32:06.286Z,100673.66
2022-09-09T07:34:37.391Z,100676.88
2022-09-09T07:37:13.167Z,100685.75
2022-09-09T07:39:43.439Z,100677.06
2022-09-09T07:42:14.968Z,100671.22
2022-09-09T07:44:45.646Z,100670.72
2022-09-09T07:47:15.994Z,100661.63
2022-09-09T07:49:47.587Z,100661.94
2022-09-09T07:52:21.904Z,100662.25
2022-09-09T07:54:53.884Z,100659.31
2022-09-09T07:57:25.221Z,100648.56
2022-09-09T07:59:55.942Z,100648.84
2022-09-09T08:02:27.095Z,100652.44
2022-09-09T08:04:57.753Z,100653.97
2022-09-09T08:07:29.930Z,100646.06
2022-09-09T08:10:00.320Z,100648.06
2022-09-09T08:12:31.145Z,100656.22
2022-09-09T08:15:05.150Z,100646.38
2022-09-09T08:17:36.023Z,100645.50
2022-09-09T08:20:07.658Z,100643.78
2022-09-09T08:22:40.172Z,100642.91
2022-09-09T08:25:11.883Z,100642.44
2022-09-09T08:27:41.959Z,100640.41
2022-09-09T08:30:14.431Z,100637.06
2022-09-09T08:32:46.011Z,100638.25
2022-09-09T08:35:19.397Z,100636.19
2022-09-09T08:37:51.730Z,100632.88
2022-09-09T08:40:40.929Z,100620.53
2022-09-09T08:43:11.745Z,100623.75
2022-09-09T08:45:53.543Z,100617.91
2022-09-09T08:48:48.019Z,100612.88
2022-09-09T08:51:19.114Z,100616.13
2022-09-09T08:53:59.016Z,100615.13
2022-09-09T08:56:35.323Z,100609.28
2022-09-09T08:59:07.741Z,100608.81
2022-09-09T09:02:04.646Z,100608.41
2022-09-09T09:04:55.859Z,100604.72
2022-09-09T09:07:45.214Z,100606.34
2022-09-09T09:10:48.392Z,100608.94
2022-09-09T09:13:24.522Z,100604.91
2022-09-09T09:16:02.548Z,100608.59
2022-09-09T09:18:33.053Z,100599.19
2022-09-09T09:21:13.501Z,100595.06
2022-09-09T09:23:52.920Z,100593.34
2022-09-09T09:26:29.264Z,100596.94
2022-09-09T09:29:04.559Z,100600.53
2022-09-09T09:31:34.703Z,100590.25
2022-09-09T09:34:05.104Z,100595.50
2022-09-09T09:36:48.037Z,100599.16
2022-09-09T09:42:23.872Z,100582.44
2022-09-09T09:44:53.983Z,100581.19
2022-09-09T09:47:26.350Z,100575.91
2022-09-09T09:50:00.174Z,100579.66
2022-09-09T09:52:33.493Z,100575.66
2022-09-09T09:55:08.855Z,100580.47
2022-09-09T09:57:41.518Z,100584.94
2022-09-09T10:00:19.737Z,100573.47
2022-09-09T10:02:53.381Z,100567.41
2022-09-09T10:05:28.006Z,100567.41
2022-09-09T10:08:08.200Z,100559.13
2022-09-09T10:10:58.997Z,100559.97
2022-09-09T10:13:43.545Z,100557.88
2022-09-09T10:16:50.033Z,100557.78
2022-09-09T10:19:35.129Z,100554.91
2022-09-09T10:22:25.734Z,100543.44
2022-09-09T10:25:34.241Z,100544.03
2022-09-09T10:28:59.718Z,100548.59
2022-09-09T10:31:45.187Z,100548.22
2022-09-09T10:34:36.715Z,100546.16
2022-09-09T10:37:24.995Z,100540.00
2022-09-09T10:40:16.816Z,100538.75
2022-09-09T10:42:48.525Z,100541.16
2022-09-09T10:45:35.173Z,100534.53
2022-09-09T10:48:32.475Z,100533.59
2022-09-09T10:51:26.889Z,100533.16
2022-09-09T10:54:27.399Z,100528.56
2022-09-09T10:57:07.137Z,100530.97
2022-09-09T10:59:47.118Z,100527.22
2022-09-09T11:02:29.619Z,100526.75
2022-09-09T11:05:09.738Z,100525.97
2022-09-09T11:07:46.664Z,100526.31
2022-09-09T11:10:29.629Z,100526.75
2022-09-09T11:13:08.787Z,100525.13
2022-09-09T11:15:49.282Z,100525.59
2022-09-09T11:18:25.308Z,100530.19
2022-09-09T11:21:03.021Z,100522.84
2022-09-09T11:23:47.105Z,100522.03
2022-09-09T11:26:29.013Z,100517.09
2022-09-09T11:29:58.785Z,100518.25
2022-09-09T11:33:04.491Z,100521.78
2022-09-09T11:35:51.385Z,100505.94
2022-09-09T11:38:29.621Z,100513.38
2022-09-09T11:41:03.646Z,100514.63
2022-09-09T11:43:43.336Z,100502.34
2022-09-09T11:46:16.714Z,100506.03
2022-09-09T11:49:00.318Z,100507.66
2022-09-09T11:51:37.187Z,100510.53
2022-09-09T11:54:41.372Z,100506.88
2022-09-09T11:57:31.688Z,100501.13
2022-09-09T12:00:02.125Z,100503.19
2022-09-09T12:02:33.683Z,100506.41
2022-09-09T12:05:11.337Z,100510.41
2022-09-09T12:07:52.456Z,100502.28
2022-09-09T12:10:30.504Z,100498.66
2022-09-09T12:13:18.898Z,100498.34
2022-09-09T12:15:55.076Z,100491.78
2022-09-09T12:18:28.754Z,100498.34
2022-09-09T12:21:11.304Z,100490.53
2022-09-09T12:24:01.724Z,100487.31
2022-09-09T12:26:46.011Z,100484.91
2022-09-09T12:29:30.677Z,100494.31
2022-09-09T12:32:10.379Z,100501.28
2022-09-09T12:34:44.788Z,100496.84
2022-09-09T12:37:30.462Z,100493.63
2022-09-09T12:40:06.057Z,100503.56
2022-09-09T12:42:41.186Z,100498.38
2022-09-09T12:45:22.792Z,100491.97
2022-09-09T12:48:03.133Z,100496.50
2022-09-09T12:50:36.415Z,100506.03
2022-09-09T12:53:17.655Z,100504.53
2022-09-09T12:56:00.264Z,100510.78
2022-09-09T12:58:34.300Z,100507.66
2022-09-09T13:01:07.152Z,100514.69
2022-09-09T13:03:47.067Z,100512.72
2022-09-09T13:06:28.560Z,100511.16
2022-09-09T13:09:02.588Z,100500.13
2022-09-09T13:11:43.628Z,100504.69
2022-09-09T13:14:22.163Z,100505.69
2022-09-09T13:17:02.274Z,100499.59
2022-09-09T13:19:38.779Z,100502.91
2022-09-09T13:22:18.043Z,100497.66
2022-09-09T13:24:48.868Z,100500.94
2022-09-09T13:27:33.757Z,100506.66
2022-09-09T13:30:04.744Z,100512.03
2022-09-09T13:32:35.127Z,100496.13
2022-09-09T13:35:08.113Z,100501.03
2022-09-09T13:37:42.487Z,100493.69
2022-09-09T13:40:23.596Z,100495.41
2022-09-09T13:43:01.017Z,100497.47
2022-09-09T13:45:32.295Z,100499.63
2022-09-09T13:48:16.075Z,100498.78
2022-09-09T13:50:58.118Z,100495.34
2022-09-09T13:53:28.909Z,100494.22
2022-09-09T13:55:59.580Z,100504.13
2022-09-09T13:58:31.291Z,100511.66
2022-09-09T14:01:02.017Z,100501.56
2022-09-09T14:03:35.182Z,100512.63
2022-09-09T14:06:04.999Z,100507.78
2022-09-09T14:08:38.621Z,100504.13
2022-09-09T14:11:10.214Z,100512.72
2022-09-09T14:13:41.768Z,100514.75
2022-09-09T14:16:13.104Z,100522.19
2022-09-09T14:18:43.421Z,100521.03
2022-09-09T14:21:13.609Z,100523.88
2022-09-09T14:23:43.991Z,100514.16
2022-09-09T14:26:14.740Z,100531.41
2022-09-09T14:28:56.005Z,100525.72
2022-09-09T14:31:27.512Z,100530.75
2022-09-09T14:33:57.954Z,100532.00
2022-09-09T14:36:28.757Z,100538.16
2022-09-09T14:38:59.843Z,100532.06
2022-09-09T14:41:30.961Z,100536.94
2022-09-09T14:44:03.512Z,100541.88
2022-09-09T14:46:35.333Z,100533.38
2022-09-09T14:49:06.160Z,100536.66
2022-09-09T14:51:37.911Z,100535.13
2022-09-09T14:54:12.889Z,100540.13
2022-09-09T14:56:45.926Z,100535.28
2022-09-09T14:59:19.590Z,100536.16
2022-09-09T15:01:51.401Z,100543.22
2022-09-09T15:04:21.730Z,100542.03
2022-09-09T15:06:53.896Z,100540.06
2022-09-09T15:09:24.583Z,100541.34
2022-09-09T15:11:54.332Z,100544.59
2022-09-09T15:14:27.610Z,100551.19
2022-09-09T15:16:57.343Z,100545.94
2022-09-09T15:19:28.655Z,100553.34
2022-09-09T15:21:59.149Z,100550.94
2022-09-09T15:24:29.587Z,100548.50
2022-09-09T15:27:00.148Z,100551.81
2022-09-09T15:29:32.499Z,100555.44
2022-09-09T15:32:03.068Z,100557.53
2022-09-09T15:34:33.775Z,100548.94
2022-09-09T15:37:04.426Z,100559.56
2022-09-09T15:39:38.721Z,100562.47
2022-09-09T15:42:09.867Z,100558.88
2022-09-09T15:44:45.597Z,100563.41
2022-09-09T15:47:16.818Z,100564.28
2022-09-09T15:49:55.185Z,100565.97
2022-09-09T15:52:25.197Z,100562.75
2022-09-09T15:54:55.741Z,100568.09
2022-09-09T15:57:26.423Z,100568.88
2022-09-09T15:59:58.521Z,100564.41
2022-09-09T16:02:29.072Z,100566.47
2022-09-09T16:04:59.627Z,100567.28
2022-09-09T16:07:29.503Z,100571.41
2022-09-09T16:10:00.586Z,100562.84
2022-09-09T16:12:31.272Z,100565.69
2022-09-09T16:15:03.890Z,100568.97
2022-09-09T16:17:38.718Z,100566.56
2022-09-09T16:20:10.384Z,100569.81
2022-09-09T16:22:41.425Z,100578.84
2022-09-09T16:25:12.718Z,100573.13
2022-09-09T16:27:42.979Z,100576.44
2022-09-09T16:30:16.506Z,100574.44
2022-09-09T16:32:47.330Z,100578.16
2022-09-09T16:35:18.046Z,100582.72
2022-09-09T16:37:48.788Z,100584.31
2022-09-09T16:40:18.819Z,100585.56
2022-09-09T16:42:49.342Z,100589.66
2022-09-09T16:45:22.285Z,100592.13
2022-09-09T16:47:52.847Z,100594.66
2022-09-09T16:50:22.937Z,100597.91
2022-09-09T16:52:54.339Z,100601.59
2022-09-09T16:55:24.885Z,100607.72
2022-09-09T16:57:55.484Z,100611.03
2022-09-09T17:00:28.544Z,100612.25
2022-09-09T17:02:59.602Z,100612.72
2022-09-09T17:05:34.680Z,100615.56
2022-09-09T17:08:06.956Z,100625.78
2022-09-09T17:10:39.332Z,100631.91
2022-09-09T17:13:12.674Z,100631.13
2022-09-09T17:15:47.471Z,100642.53
2022-09-09T17:18:18.564Z,100636.00
2022-09-09T17:20:49.624Z,100640.91
2022-09-09T17:23:21.313Z,100636.81
2022-09-09T17:26:01.575Z,100649.88
2022-09-09T17:28:32.723Z,100649.47
2022-09-09T17:31:08.217Z,100646.19
2022-09-09T17:33:41.001Z,100656.00
2022-09-09T17:36:15.634Z,100664.56
2022-09-09T17:38:48.313Z,100660.91
2022-09-09T17:41:23.032Z,100671.09
2022-09-09T17:43:54.420Z,100672.31
2022-09-09T17:46:29.221Z,100678.84
2022-09-09T17:49:02.848Z,100672.31
2022-09-09T17:51:36.139Z,100673.13
2022-09-09T17:54:10.485Z,100675.19
2022-09-09T17:56:42.867Z,100678.03
2022-09-09T17:59:15.469Z,100676.41
2022-09-09T18:01:51.633Z,100682.13
2022-09-09T18:04:22.901Z,100684.59
2022-09-09T18:06:56.263Z,100677.28
2022-09-09T18:09:29.687Z,100683.44
2022-09-09T18:12:03.077Z,100686.72
2022-09-09T18:14:35.636Z,100682.66
2022-09-09T18:17:09.650Z,100685.97
2022-09-09T18:19:40.170Z,100689.25
2022-09-09T18:22:10.087Z,100688.44
2022-09-09T18:24:41.462Z,100686.81
2022-09-09T18:27:17.879Z,100692.53
2022-09-09T18:29:48.776Z,100692.53
2022-09-09T18:32:20.580Z,100692.53
2022-09-09T18:34:55.331Z,100695.38
2022-09-09T18:37:26.634Z,100695.38
2022-09-09T18:39:56.547Z,100699.47
2022-09-09T18:42:27.142Z,100703.94
2022-09-09T18:44:59.269Z,100703.94
2022-09-09T18:47:34.580Z,100696.63
2022-09-09T18:50:05.108Z,100703.16
2022-09-09T18:52:36.234Z,100696.63
2022-09-09T18:55:07.193Z,100699.91
2022-09-09T18:57:38.942Z,100699.91
2022-09-09T19:00:12.912Z,100702.38
2022-09-09T19:02:44.838Z,100704.44
2022-09-09T19:05:15.426Z,100704.06
2022-09-09T19:07:45.997Z,100700.41
2022-09-09T19:10:20.678Z,100704.06
2022-09-09T19:12:50.926Z,100704.50
2022-09-09T19:15:21.680Z,100707.34
2022-09-09T19:17:53.712Z,100708.22
2022-09-09T19:20:24.537Z,100715.16
2022-09-09T19:22:54.908Z,100711.13
2022-09-09T19:25:25.501Z,100713.97
2022-09-09T19:27:55.873Z,100709.50
2022-09-09T19:30:26.789Z,100713.59
2022-09-09T19:32:59.481Z,100711.16
2022-09-09T19:35:29.934Z,100712.41
2022-09-09T19:38:01.857Z,100718.91
2022-09-09T19:40:32.277Z,100719.34
2022-09-09T19:43:02.338Z,100713.66
2022-09-09T19:45:32.636Z,100711.22
2022-09-09T19:48:06.781Z,100716.09
2022-09-09T19:50:39.390Z,100717.34
2022-09-09T19:53:09.672Z,100714.50
2022-09-09T19:55:42.532Z,100712.47
2022-09-09T19:58:12.469Z,100719.41
2022-09-09T20:00:43.169Z,100714.94
2022-09-09T20:03:19.601Z,100714.94
2022-09-09T20:05:51.718Z,100714.94
2022-09-09T20:08:21.644Z,100714.53
2022-09-09T20:10:56.232Z,100714.97
2022-09-09T20:13:26.070Z,100712.94
2022-09-09T20:16:03.071Z,100717.03
2022-09-09T20:18:37.475Z,100714.63
2022-09-09T20:21:10.453Z,100712.19
2022-09-09T20:23:40.977Z,100717.09
2022-09-09T20:26:15.367Z,100715.84
2022-09-09T20:28:47.419Z,100715.03
2022-09-09T20:31:20.091Z,100710.59
2022-09-09T20:33:53.235Z,100709.31
2022-09-09T20:36:27.542Z,100704.88
2022-09-09T20:39:00.284Z,100703.63
2022-09-09T20:41:33.390Z,100708.53
2022-09-09T20:44:06.685Z,100704.88
2022-09-09T20:46:39.966Z,100712.63
2022-09-09T20:49:14.452Z,100708.16
2022-09-09T20:51:44.862Z,100704.91
2022-09-09T20:54:17.793Z,100710.59
2022-09-09T20:56:50.091Z,100705.72
2022-09-09T20:59:23.865Z,100711.44
2022-09-09T21:01:54.892Z,100708.59
2022-09-09T21:04:28.242Z,100706.13
2022-09-09T21:06:58.525Z,100713.09
2022-09-09T21:09:28.276Z,100709.88
2022-09-09T21:11:58.645Z,100705.41
2022-09-09T21:14:29.232Z,100708.25
2022-09-09T21:17:00.025Z,100705.00
2022-09-09T21:19:32.145Z,100698.50
2022-09-09T21:22:02.628Z,100703.38
2022-09-09T21:24:33.050Z,100697.69
2022-09-09T21:27:03.289Z,100704.22
2022-09-09T21:29:33.744Z,100702.59
2022-09-09T21:32:04.019Z,100701.78
2022-09-09T21:34:37.636Z,100696.06
2022-09-09T21:37:09.943Z,100699.34
2022-09-09T21:39:41.005Z,100696.94
2022-09-09T21:42:11.678Z,100696.94
2022-09-09T21:44:42.284Z,100690.41
2022-09-09T21:47:12.813Z,100697.72
2022-09-09T21:49:44.885Z,100694.88
2022-09-09T21:52:16.519Z,100692.47
2022-09-09T21:54:47.060Z,100688.78
2022-09-09T21:57:16.958Z,100687.16
2022-09-09T21:59:48.045Z,100690.03
2022-09-09T22:02:19.035Z,100681.13
2022-09-09T22:04:52.202Z,100674.16
2022-09-09T22:07:23.035Z,100679.50
2022-09-09T22:09:53.615Z,100670.94
2022-09-09T22:12:23.742Z,100677.88
2022-09-09T22:14:54.746Z,100677.03
2022-09-09T22:17:26.046Z,100679.91
2022-09-09T22:19:58.522Z,100664.84
2022-09-09T22:22:29.264Z,100672.56
2022-09-09T22:24:59.419Z,100668.94
2022-09-09T22:27:30.271Z,100668.94
2022-09-09T22:30:01.030Z,100668.09
2022-09-09T22:32:31.681Z,100665.25
2022-09-09T22:35:03.842Z,100662.41
2022-09-09T22:37:35.252Z,100665.25
2022-09-09T22:40:06.792Z,100667.31
2022-09-09T22:42:38.137Z,100670.16
2022-09-09T22:45:10.420Z,100665.69
2022-09-09T22:47:42.998Z,100662.03
2022-09-09T22:50:15.544Z,100658.38
2022-09-09T22:52:45.712Z,100658.38
2022-09-09T22:55:15.611Z,100663.69
2022-09-09T22:57:46.100Z,100662.09
2022-09-09T23:00:17.361Z,100656.41
2022-09-09T23:02:51.064Z,100649.88
2022-09-09T23:05:25.612Z,100661.28
2022-09-09T23:07:58.746Z,100664.56
2022-09-09T23:10:29.749Z,100659.66
2022-09-09T23:13:00.125Z,100656.00
2022-09-09T23:15:31.906Z,100657.63
2022-09-09T23:18:02.083Z,100654.78
2022-09-09T23:20:33.867Z,100649.06
2022-09-09T23:23:03.839Z,100651.53
2022-09-09T23:25:34.372Z,100652.78
2022-09-09T23:28:04.795Z,100654.81
2022-09-09T23:30:35.954Z,100649.91
2022-09-09T23:33:06.472Z,100648.31
2022-09-09T23:35:39.773Z,100640.13
2022-09-09T23:38:10.863Z,100640.97
2022-09-09T23:40:41.580Z,100647.50
2022-09-09T23:43:12.123Z,100643.03
2022-09-09T23:45:42.705Z,100640.19
2022-09-09T23:48:13.173Z,100636.50
2022-09-09T23:50:45.885Z,100644.28
2022-09-09T23:53:16.218Z,100642.66
2022-09-09T23:55:47.018Z,100637.38
2022-09-09T23:58:17.474Z,100643.88
